Latest Coastal Weather Observations for Gabo Island

IDV60701

Issued at 1:52 am EDT Tuesday 19 October 2021 (issued every 10 minutes, with the page automatically refreshed every 10 minutes)

About coastal observations | Map of coastal stations | Coastal observations for VIC | Marine services | Other Formats
Station Details ID: 084016 Name: GABO ISLAND LIGHTHOUSE Lat: -37.57 Lon: 149.92 Height: 15.0 m
Data from the previous 72 hours. | See also: Recent months at Gabo Island
Date/Time
EDT
Wind Sea
Height
m
Swell Vis
km
Cloud Weather Temp
°C
Press
MSL
hPa
Rain since
9am
mm
Dir  Spd
kts
Gust
kts
Height
m
Period
s
Dir
19/01:30am WSW 16 19 - - - - - - - 12.4 1016.8 4.4
19/01:00am WSW 14 20 - - - - - - - 12.2 1016.7 4.4
19/12:46am WSW 17 24 - - - - - - - 12.4 1017.0 3.8
19/12:30am SW 21 25 - - - - - - - 12.9 1017.1 3.0
19/12:00am SSW 26 33 - - - - - - - 13.0 1016.2 3.0
 
Date/Time
EDT
Wind Sea
Height
m
Swell Vis
km
Cloud Weather Temp
°C
Press
MSL
hPa
Rain since
9am
mm
Dir  Spd
kts
Gust
kts
Height
m
Period
s
Dir
18/11:52pm SW 27 33 - - - - - - - 12.6 1016.2 3.0
18/11:30pm SW 16 22 - - - - - - - 13.9 1016.0 2.8
18/11:26pm WSW 15 18 - - - - - - - 13.8 1016.0 2.8
18/11:00pm SSW 6 7 - - - - - - - 13.9 1015.2 2.8
18/10:30pm SSW 12 18 - - - - - - - 14.0 1015.2 2.2
18/10:03pm WSW 15 24 - - - - - - - 14.5 1015.3 1.4
18/10:00pm WSW 12 16 - - - - - - - 14.5 1015.5 1.4
18/09:30pm ENE 5 6 - - - - - - - 14.4 1013.9 1.4
18/09:00pm N 5 8 1 0.5 10 S 40 Cloudy Fine 14.1 1014.0 1.4
18/08:30pm NNE 11 13 - - - - - - - 14.1 1013.6 1.4
18/08:00pm NNE 11 13 - - - - - - - 14.2 1013.0 1.4
18/07:30pm NNE 9 12 - - - - - - - 14.3 1012.9 1.4
18/07:00pm E 8 9 - - - - - - - 14.7 1013.0 1.4
18/06:30pm SE 5 8 - - - - - - - 14.7 1013.4 1.4
18/06:00pm S 15 18 - - - - - - - 14.5 1013.6 1.4
18/05:43pm SSW 20 26 - - - - - - - 15.0 1013.8 1.4
18/05:30pm W 14 27 - - - - - - - 15.5 1014.1 1.2
18/05:26pm NNW 8 27 - - - - - - - 15.8 1014.3 1.2
18/05:00pm SE 6 7 - - - - - - - 16.4 1012.7 1.2
18/04:30pm N 7 11 - - - - - - - 17.0 1013.1 0.0
18/04:00pm NE 14 16 - - - - - - - 18.5 1011.6 0.0
18/03:30pm NE 13 15 - - - - - - - 18.0 1011.7 0.0
18/03:00pm NE 9 12 1 1.0 10 S 40 Mostly cloudy Fine 17.8 1012.1 0.0
18/02:30pm NNE 9 11 - - - - - - - 19.0 1012.2 0.0
18/02:00pm NNE 10 12 - - - - - - - 17.8 1012.4 0.0
18/01:30pm NE 11 13 - - - - - - - 17.4 1012.7 0.0
18/01:00pm NE 9 11 - - - - - - - 17.6 1013.0 0.0
18/12:30pm NE 10 11 - - - - - - - 17.0 1013.2 0.0
18/12:00pm NE 11 14 - - - - - - - 17.0 1013.5 0.0
18/11:30am NE 11 13 - - - - - - - 17.8 1013.7 0.0
18/11:00am ENE 7 9 - - - - - - - 17.1 1014.1 0.0
18/10:30am ENE 5 6 - - - - - - - 16.8 1014.1 0.0
18/10:00am ESE 3 5 - - - - - - - 16.6 1014.2 0.0
18/09:30am ENE 2 4 - - - - - - - 16.7 1014.1 0.0
18/09:00am NNE 4 5 1 1.0 10 S 25 Partly cloudy Fine 15.8 1014.0 0.0
18/08:30am NNE 5 7 - - - - - - - 15.1 1014.1 0.0
18/08:00am NNE 6 7 - - - - - - - 13.4 1014.1 0.0
18/07:30am NNE 2 5 - - - - - - - 12.6 1014.2 0.0
18/07:00am CALM 0 3 - - - - - - - 11.1 1014.2 0.0
18/06:30am NNE 4 5 - - - - - - - 10.0 1013.9 0.0
18/06:00am WNW 5 7 - - - - - - - 9.3 1014.0 0.0
18/05:30am WNW 7 8 - - - - - - - 9.4 1013.9 0.0
18/05:00am W 7 8 - - - - - - - 9.8 1013.9 0.0
18/04:30am WNW 5 6 - - - - - - - 10.8 1013.8 0.0
18/04:00am WNW 6 7 - - - - - - - 10.7 1013.9 0.0
18/03:30am WNW 5 6 - - - - - - - 10.9 1014.1 0.0
18/03:00am CALM 0 0 1 1.0 10 S 40 Mostly clear Fine 12.0 1014.3 0.0
18/02:30am WNW 3 5 - - - - - - - 12.1 1014.6 0.0
18/02:00am WNW 4 5 - - - - - - - 12.3 1014.8 0.0
18/01:30am N 3 4 - - - - - - - 11.8 1015.0 0.0
18/01:00am N 4 5 - - - - - - - 11.4 1015.0 0.0
18/12:30am N 5 5 - - - - - - - 11.3 1015.2 0.0
18/12:00am N 4 5 - - - - - - - 11.9 1015.3 0.0
 
Date/Time
EDT
Wind Sea
Height
m
Swell Vis
km
Cloud Weather Temp
°C
Press
MSL
hPa
Rain since
9am
mm
Dir  Spd
kts
Gust
kts
Height
m
Period
s
Dir
17/11:30pm N 5 6 - - - - - - - 12.2 1015.4 0.0
17/11:00pm N 5 6 - - - - - - - 12.1 1015.5 0.0
17/10:30pm N 4 5 - - - - - - - 12.0 1015.5 0.0
17/10:00pm N 3 5 - - - - - - - 12.1 1015.5 0.0
17/09:30pm N 3 4 - - - - - - - 12.2 1015.4 0.0
17/09:00pm CALM 0 0 1 1.5 10 S 40 Partly cloudy Fine 12.8 1015.4 0.0
17/08:30pm SSE 4 5 - - - - - - - 13.2 1015.2 0.0
17/08:00pm S 4 4 - - - - - - - 13.2 1014.7 0.0
17/07:30pm SSE 5 6 - - - - - - - 13.3 1014.2 0.0
17/07:00pm S 7 8 - - - - - - - 13.5 1014.0 0.0
17/06:30pm SSW 8 10 - - - - - - - 14.0 1013.7 0.0
17/06:00pm SSW 11 13 - - - - - - - 14.6 1013.3 0.0
17/05:30pm SSW 14 16 - - - - - - - 14.9 1012.9 0.0
17/05:00pm SSW 16 18 - - - - - - - 14.9 1012.7 0.0
17/04:30pm SSW 17 21 - - - - - - - 14.9 1012.5 0.0
17/04:00pm SSW 19 21 - - - - - - - 15.0 1012.4 0.0
17/03:30pm SSW 22 25 - - - - - - - 14.4 1012.5 0.0
17/03:00pm SSW 21 25 1 2.0 9 S 40 Partly cloudy Fine 14.3 1012.6 0.0
17/02:30pm SSW 23 26 - - - - - - - 14.2 1012.8 0.0
17/02:00pm SW 25 27 - - - - - - - 14.2 1013.0 0.0
17/01:30pm SW 24 27 - - - - - - - 14.3 1013.1 0.0
17/01:00pm SW 26 31 - - - - - - - 14.1 1013.1 0.0
17/12:30pm SW 24 28 - - - - - - - 14.3 1013.3 0.0
17/12:00pm SW 26 31 - - - - - - - 14.3 1013.3 0.0
17/11:30am SW 21 25 - - - - - - - 14.4 1013.5 0.0
17/11:00am WSW 16 21 - - - - - - - 15.8 1013.6 0.0
17/10:30am WSW 21 28 - - - - - - - 14.6 1013.7 0.0
17/10:00am WSW 20 25 - - - - - - - 15.1 1013.4 0.0
17/09:30am WSW 17 23 - - - - - - - 13.9 1013.1 0.0
17/09:00am WSW 19 24 1 2.0 9 S 20 Mostly cloudy Distant precip. 13.2 1013.0 6.0
17/08:30am WSW 18 23 - - - - - - - 12.7 1012.8 6.0
17/08:00am WSW 19 25 - - - - - - - 12.2 1012.2 6.0
17/07:30am WSW 19 24 - - - - - - - 11.6 1011.9 6.0
17/07:00am WSW 18 25 - - - - - - - 11.0 1011.7 6.0
17/06:30am WSW 18 23 - - - - - - - 11.0 1011.2 5.8
17/06:00am WSW 21 26 - - - - - - - 11.7 1010.5 5.8
17/05:30am WSW 21 26 - - - - - - - 11.7 1009.9 5.8
17/05:00am WSW 21 27 - - - - - - - 11.9 1009.7 5.8
17/04:30am WSW 22 29 - - - - - - - 11.8 1009.3 5.8
17/04:00am WSW 21 29 - - - - - - - 11.4 1009.1 5.8
17/03:31am WSW 23 35 - - - - - - - 12.1 1009.0 5.8
17/03:30am WSW 23 29 - - - - - - - 12.2 1009.0 5.8
17/03:00am WSW 23 28 2 2.0 7 SW 30 Cloudy Fine 12.3 1008.8 5.8
17/02:30am WSW 24 30 - - - - - - - 12.3 1008.4 5.8
17/02:00am WSW 25 32 - - - - - - - 12.5 1008.2 5.8
17/01:30am WSW 25 31 - - - - - - - 12.7 1008.4 5.8
17/01:18am WSW 24 34 - - - - - - - 12.6 1008.3 5.8
17/01:00am WSW 27 35 - - - - - - - 12.7 1008.3 5.8
17/12:30am WSW 27 34 - - - - - - - 12.5 1008.1 5.8
17/12:15am WSW 27 38 - - - - - - - 12.7 1008.2 5.8
17/12:00am WSW 26 35 - - - - - - - 12.8 1008.1 5.8
 
Date/Time
EDT
Wind Sea
Height
m
Swell Vis
km
Cloud Weather Temp
°C
Press
MSL
hPa
Rain since
9am
mm
Dir  Spd
kts
Gust
kts
Height
m
Period
s
Dir
16/11:30pm WSW 27 39 - - - - - - - 12.9 1008.1 5.8
16/11:18pm WSW 24 34 - - - - - - - 12.7 1008.0 5.8
16/11:00pm WSW 30 37 - - - - - - - 13.0 1007.9 5.8
16/10:57pm WSW 30 37 - - - - - - - 13.3 1007.9 5.8
16/10:36pm WSW 36 46 - - - - - - - 13.2 1007.4 5.8
16/10:30pm WSW 38 46 - - - - - - - 13.2 1007.3 5.8
16/10:12pm WSW 32 42 - - - - - - - 13.3 1007.2 5.8
16/10:00pm WSW 32 40 - - - - - - - 13.2 1007.2 5.8
16/09:43pm WSW 32 42 - - - - - - - 13.2 1007.0 5.8
16/09:30pm WSW 33 42 - - - - - - - 13.3 1006.8 5.8
16/09:18pm WSW 31 41 - - - - - - - 13.2 1006.7 5.8
16/09:00pm WSW 32 39 - - - - - - - 13.3 1006.6 5.8
16/08:30pm WSW 32 43 - - - - - - - 13.4 1006.3 5.8
16/08:03pm WSW 35 45 - - - - - - - 13.4 1005.6 5.8
16/08:00pm WSW 35 43 - - - - - - - 13.4 1005.5 5.8
16/07:44pm WSW 33 43 - - - - - - - 13.4 1005.1 5.8
16/07:30pm WSW 32 41 - - - - - - - 13.4 1004.8 5.8
16/07:10pm WSW 33 43 - - - - - - - 13.6 1004.4 5.8
16/07:00pm WSW 34 42 - - - - - - - 13.6 1004.2 5.8
16/06:36pm WSW 32 42 - - - - - - - 13.7 1004.0 5.8
16/06:30pm SW 34 42 - - - - - - - 13.7 1003.9 5.8
16/06:01pm SW 35 45 - - - - - - - 13.8 1003.4 5.8
16/06:00pm SW 35 44 - - - - - - - 13.8 1003.4 5.8
16/05:30pm SW 38 49 - - - - - - - 14.1 1002.8 5.8
16/05:00pm WSW 38 49 - - - - - - - 14.1 1002.4 5.8
16/04:30pm SW 36 47 - - - - - - - 13.8 1002.2 5.8
16/04:02pm SW 37 49 - - - - - - - 13.8 1001.4 5.8
16/04:00pm SW 37 45 - - - - - - - 14.1 1001.4 5.8
16/03:34pm WSW 39 50 - - - - - - - 14.5 1001.0 5.8
16/03:30pm SW 39 47 - - - - - - - 14.4 1001.0 5.8
16/03:00pm SW 37 47 2 2.0 6 SW 15 Partly cloudy Distant precip. 14.5 1000.6 5.8
16/02:38pm WSW 35 46 - - - - - - - 13.9 1000.7 5.8
16/02:30pm WSW 34 43 - - - - - - - 13.8 1000.7 5.8
16/02:00pm WSW 35 48 - - - - - - - 13.4 1000.5 5.8
16/01:43pm WSW 35 45 - - - - - - - 13.2 1000.2 5.8
16/01:30pm WSW 34 43 - - - - - - - 13.2 1000.0 5.8
16/01:00pm WSW 31 41 - - - - - - - 12.6 999.8 5.6
16/12:54pm WSW 31 41 - - - - - - - 12.7 999.8 5.6
16/12:30pm WSW 31 36 - - - - - - - 12.4 999.4 3.6
16/12:16pm WSW 26 36 - - - - - - - 12.7 999.3 2.4
16/12:00pm WSW 29 38 - - - - - - - 13.0 998.8 0.2
16/11:53am WSW 28 38 - - - - - - - 13.1 998.7 0.0
16/11:30am WSW 27 33 - - - - - - - 13.4 998.7 0.0
16/11:07am WSW 26 36 - - - - - - - 13.8 998.7 0.0
16/11:00am WSW 29 37 - - - - - - - 13.6 998.6 0.0
16/10:30am WSW 28 36 - - - - - - - 13.9 998.4 0.0
16/10:00am WSW 28 34 - - - - - - - 13.5 998.1 0.0
16/09:30am WSW 25 32 - - - - - - - 14.2 997.8 0.0
16/09:01am WSW 26 36 - - - - - - - 13.4 997.4 0.0
16/09:00am WSW 25 34 1 1.5 6 SW 20 Mostly cloudy Showers 13.3 997.4 2.6
16/08:30am WSW 29 37 - - - - - - - 13.2 997.0 2.6
16/08:02am WSW 26 36 - - - - - - - 13.3 996.8 2.4
16/08:00am WSW 27 36 - - - - - - - 13.8 996.6 2.4
16/07:32am WSW 24 34 - - - - - - - 13.2 996.3 2.4
16/07:30am WSW 25 34 - - - - - - - 13.2 996.3 2.4
16/07:00am WSW 24 34 - - - - - - - 13.1 995.4 2.4
16/06:56am WSW 24 34 - - - - - - - 13.0 995.4 2.4
16/06:30am W 23 31 - - - - - - - 12.7 995.0 2.4
16/06:16am NW 23 30 - - - - - - - 12.5 994.9 2.4
16/06:14am NW 24 31 - - - - - - - 12.4 994.8 2.4
16/06:12am NW 23 31 - - - - - - - 12.4 994.8 2.4
16/06:06am NW 20 31 - - - - - - - 12.1 994.7 2.4
16/06:00am WNW 17 23 - - - - - - - 11.7 994.9 2.4
16/05:30am NW 12 19 - - - - - - - 11.1 994.9 2.4
16/05:00am NNW 10 15 - - - - - - - 10.8 994.8 2.0
16/04:30am N 8 12 - - - - - - - 11.2 995.1 0.6
16/04:00am NNW 5 7 - - - - - - - 10.9 995.2 0.2
16/03:30am NW 9 12 - - - - - - - 11.4 995.5 0.0
16/03:00am NW 9 14 1 1.5 10 E 25 Mostly cloudy Fine 12.1 995.8 0.0
16/02:30am NW 8 11 - - - - - - - 12.1 995.7 0.0
16/02:00am NW 6 9 - - - - - - - 11.7 996.0 0.0

Other formats

Comma delimited format used in spreadsheet applications
http://www.bom.gov.au/fwo/IDV60701/IDV60701.94933.axf

JavaScript Object Notation format (JSON) in row-major order
http://www.bom.gov.au/fwo/IDV60701/IDV60701.94933.json

Data quality

Most of these data are generated automatically and are frequently updated. Quality checks on data are not normally performed. It is possible for incorrect values to appear. Refer to information at About Latest Weather Observations and please check the disclaimer before using these data.